Time;durP1;ratioP1;P1;durP2;ratioP2;P2;SDS_P1;SDS_P2;PMS_P1;PMS_P2;Temp;Humidity;BMP_temperature;BMP_pressure;BME280_temperature;BME280_humidity;BME280_pressure;Samples;Min_cycle;Max_cycle;Signal;HPM_P1;HPM_P2
2023/03/08 00:00:21;;;;;;;7.70;7.40;;;7.30;99.90;;;;;;4205703;28;20052;-59
2023/03/08 00:02:41;;;;;;;7.75;7.55;;;7.30;99.90;;;;;;4206513;28;20346;-58
2023/03/08 00:05:02;;;;;;;7.00;6.68;;;7.30;99.90;;;;;;4205732;28;20094;-58
2023/03/08 00:07:23;;;;;;;8.15;6.78;;;7.30;99.90;;;;;;4207650;28;20408;-58
2023/03/08 00:09:43;;;;;;;6.82;6.53;;;7.30;99.90;;;;;;4206402;28;20123;-59
2023/03/08 00:12:03;;;;;;;5.68;5.57;;;7.30;99.90;;;;;;4206154;28;20051;-60
2023/03/08 00:14:23;;;;;;;6.75;6.32;;;7.40;99.90;;;;;;4207951;28;20075;-59
2023/03/08 00:16:43;;;;;;;7.88;7.28;;;7.30;99.90;;;;;;4208621;28;20065;-58
2023/03/08 00:19:03;;;;;;;7.60;7.40;;;7.40;99.90;;;;;;4209191;28;20219;-60
2023/03/08 00:21:23;;;;;;;7.22;6.93;;;7.40;99.90;;;;;;4208912;28;20047;-58
2023/03/08 00:23:44;;;;;;;8.52;8.02;;;7.40;99.90;;;;;;4210894;28;20075;-60
2023/03/08 00:26:05;;;;;;;12.32;11.15;;;7.30;99.90;;;;;;4208755;28;20039;-59
2023/03/08 00:28:25;;;;;;;6.93;6.72;;;7.30;99.90;;;;;;4208830;28;20043;-58
2023/03/08 00:30:45;;;;;;;7.00;6.50;;;7.40;99.90;;;;;;4208408;28;20163;-57
2023/03/08 00:33:05;;;;;;;6.75;6.55;;;7.30;99.90;;;;;;4225955;28;20074;-59
2023/03/08 00:35:25;;;;;;;7.38;7.03;;;7.30;99.90;;;;;;4206189;28;20109;-58
2023/03/08 00:37:45;;;;;;;7.25;7.05;;;7.20;99.90;;;;;;4208614;28;20048;-59
2023/03/08 00:40:06;;;;;;;6.10;5.70;;;7.40;99.90;;;;;;4209410;28;20086;-58
2023/03/08 00:42:26;;;;;;;7.00;6.65;;;7.40;99.90;;;;;;4207465;28;20122;-59
2023/03/08 00:44:46;;;;;;;6.25;6.07;;;7.50;99.90;;;;;;4209531;28;20043;-59
2023/03/08 00:47:06;;;;;;;6.57;6.25;;;7.60;99.90;;;;;;4209310;28;20047;-58
2023/03/08 00:49:26;;;;;;;5.68;5.32;;;7.50;99.90;;;;;;4208826;28;20373;-58
2023/03/08 00:51:46;;;;;;;6.80;6.55;;;7.50;99.90;;;;;;4209786;28;20055;-58
2023/03/08 00:54:06;;;;;;;5.30;5.20;;;7.40;99.90;;;;;;4209376;28;20086;-59
2023/03/08 00:56:26;;;;;;;6.53;6.20;;;7.40;99.90;;;;;;4207933;28;20051;-58
2023/03/08 00:58:46;;;;;;;6.15;6.05;;;7.50;99.90;;;;;;4208854;28;20058;-59
2023/03/08 01:01:08;;;;;;;6.30;6.00;;;7.50;99.90;;;;;;4210122;28;20047;-59
2023/03/08 01:03:28;;;;;;;6.25;6.03;;;7.50;99.90;;;;;;4209682;28;20063;-59
2023/03/08 01:05:50;;;;;;;7.28;6.63;;;7.50;99.90;;;;;;4207412;28;20090;-58
2023/03/08 01:08:11;;;;;;;5.80;5.53;;;7.40;99.90;;;;;;4207384;28;20051;-58
2023/03/08 01:10:31;;;;;;;5.63;5.43;;;7.40;99.90;;;;;;4207575;28;20106;-58
2023/03/08 01:12:50;;;;;;;4.53;4.43;;;7.30;99.90;;;;;;4207832;28;20090;-58
2023/03/08 01:15:10;;;;;;;5.70;5.50;;;7.40;99.90;;;;;;4207774;28;20247;-59
2023/03/08 01:17:30;;;;;;;5.00;4.78;;;7.50;99.90;;;;;;4208408;28;20251;-59
2023/03/08 01:19:49;;;;;;;5.72;5.53;;;7.40;99.90;;;;;;4208000;28;20287;-57
2023/03/08 01:22:09;;;;;;;5.72;5.43;;;7.40;99.90;;;;;;4208482;28;20046;-58
2023/03/08 01:24:29;;;;;;;5.93;5.38;;;7.30;99.90;;;;;;4207194;28;20124;-58
2023/03/08 01:26:48;;;;;;;5.43;5.20;;;7.20;99.90;;;;;;4207446;28;20073;-58
2023/03/08 01:29:08;;;;;;;6.20;5.68;;;7.20;99.90;;;;;;4209000;28;20082;-58
2023/03/08 01:31:30;;;;;;;5.82;5.53;;;7.30;99.90;;;;;;4209635;28;20062;-58
2023/03/08 01:33:51;;;;;;;5.95;5.63;;;7.60;99.90;;;;;;4208449;28;20075;-59
2023/03/08 01:36:15;;;;;;;5.38;5.28;;;7.60;99.90;;;;;;4206084;28;20060;-59
2023/03/08 01:38:36;;;;;;;5.60;5.30;;;7.60;99.90;;;;;;4209752;28;20043;-57
2023/03/08 01:40:57;;;;;;;6.10;6.00;;;7.60;99.90;;;;;;4208108;28;20071;-58
2023/03/08 01:43:29;;;;;;;6.35;5.75;;;7.50;99.90;;;;;;4208383;28;20088;-58
2023/03/08 01:46:29;;;;;;;5.55;5.28;;;7.40;99.90;;;;;;4208238;28;20044;-58
2023/03/08 01:48:54;;;;;;;4.50;4.20;;;7.40;99.90;;;;;;4210186;28;20111;-58
2023/03/08 01:51:19;;;;;;;6.30;6.15;;;7.30;99.90;;;;;;4206503;28;20075;-59
2023/03/08 01:53:41;;;;;;;6.55;6.25;;;7.30;99.90;;;;;;4207479;28;20044;-59
2023/03/08 01:56:01;;;;;;;10.13;7.05;;;7.10;99.90;;;;;;4209589;28;20102;-59
2023/03/08 01:58:21;;;;;;;6.35;5.88;;;7.00;99.90;;;;;;4209472;28;20058;-59
2023/03/08 02:00:41;;;;;;;5.55;5.38;;;7.00;99.90;;;;;;4207979;28;20047;-59
2023/03/08 02:03:06;;;;;;;6.63;6.43;;;7.10;99.90;;;;;;4205698;22;20098;-57
2023/03/08 02:05:26;;;;;;;6.32;6.03;;;7.00;99.90;;;;;;4176585;28;20056;-57
2023/03/08 02:07:46;;;;;;;7.18;6.50;;;7.00;99.90;;;;;;4168381;28;20084;-57
2023/03/08 02:10:08;;;;;;;6.72;6.28;;;7.00;99.90;;;;;;4175391;28;20041;-57
2023/03/08 02:12:28;;;;;;;6.65;6.43;;;7.10;99.90;;;;;;4177933;28;20082;-57
2023/03/08 02:14:48;;;;;;;6.60;6.40;;;7.00;99.90;;;;;;4176080;28;20080;-57
2023/03/08 02:17:09;;;;;;;7.18;6.95;;;7.00;99.90;;;;;;4172270;28;20373;-57
2023/03/08 02:19:43;;;;;;;6.82;6.63;;;7.00;99.90;;;;;;4177762;28;20083;-57
2023/03/08 02:22:11;;;;;;;6.05;5.65;;;6.90;99.90;;;;;;4177937;28;20051;-55
2023/03/08 02:24:31;;;;;;;6.13;5.85;;;6.90;99.90;;;;;;4177861;28;20383;-55
2023/03/08 02:26:54;;;;;;;5.30;5.03;;;6.90;99.90;;;;;;4176379;28;20120;-55
2023/03/08 02:29:13;;;;;;;5.95;5.75;;;6.90;99.90;;;;;;4174590;28;20075;-55
2023/03/08 02:31:33;;;;;;;5.85;5.53;;;6.90;99.90;;;;;;4174522;28;20112;-55
2023/03/08 02:33:53;;;;;;;6.97;6.25;;;7.00;99.90;;;;;;4178672;28;20053;-55
2023/03/08 02:36:13;;;;;;;5.65;5.40;;;7.00;99.90;;;;;;4176593;28;20119;-55
2023/03/08 02:38:34;;;;;;;6.70;6.32;;;7.00;99.90;;;;;;4181752;28;20363;-55
2023/03/08 02:40:54;;;;;;;6.57;6.15;;;7.00;99.90;;;;;;4178469;28;20155;-55
2023/03/08 02:43:14;;;;;;;6.07;5.78;;;7.00;99.90;;;;;;4182145;28;20079;-55
2023/03/08 02:45:34;;;;;;;5.72;5.45;;;7.00;99.90;;;;;;4170375;28;20060;-55
2023/03/08 02:47:54;;;;;;;6.25;6.05;;;7.00;99.90;;;;;;4174635;28;20088;-55
2023/03/08 02:50:14;;;;;;;7.18;6.68;;;7.00;99.90;;;;;;4173960;28;20064;-55
2023/03/08 02:52:34;;;;;;;7.80;7.28;;;7.00;99.90;;;;;;4179092;28;20064;-55
2023/03/08 02:54:53;;;;;;;6.97;6.47;;;7.00;99.90;;;;;;4175121;28;20064;-55
2023/03/08 02:57:13;;;;;;;8.27;7.65;;;7.00;99.90;;;;;;4173328;28;20043;-55
2023/03/08 02:59:33;;;;;;;6.82;6.57;;;6.90;99.90;;;;;;4179926;28;20047;-55
2023/03/08 03:01:53;;;;;;;7.60;7.22;;;6.90;99.90;;;;;;4173525;28;20052;-55
2023/03/08 03:04:14;;;;;;;8.57;7.82;;;6.90;99.90;;;;;;4177502;28;20040;-54
2023/03/08 03:06:34;;;;;;;8.18;7.57;;;6.80;99.90;;;;;;4171522;28;20119;-59
2023/03/08 03:08:54;;;;;;;8.35;8.05;;;6.90;99.90;;;;;;4179457;28;20052;-58
2023/03/08 03:11:16;;;;;;;9.00;8.57;;;6.80;99.90;;;;;;4171977;28;20060;-57
2023/03/08 03:13:36;;;;;;;8.38;7.97;;;6.90;99.90;;;;;;4176926;28;20044;-58
2023/03/08 03:15:56;;;;;;;8.60;8.15;;;6.90;99.90;;;;;;4177171;28;20059;-58
2023/03/08 03:18:16;;;;;;;8.05;7.78;;;6.70;99.90;;;;;;4173377;28;20037;-59
2023/03/08 03:20:36;;;;;;;7.15;6.50;;;6.40;99.90;;;;;;4171849;28;20052;-59
2023/03/08 03:22:57;;;;;;;7.97;7.68;;;6.40;99.90;;;;;;4175828;28;20086;-58
2023/03/08 03:25:17;;;;;;;6.80;6.65;;;6.40;99.90;;;;;;4176933;28;20075;-59
2023/03/08 03:27:37;;;;;;;6.95;6.75;;;6.50;99.90;;;;;;4168040;28;20047;-59
2023/03/08 03:29:57;;;;;;;6.55;6.45;;;6.50;99.90;;;;;;4172212;28;20096;-59
2023/03/08 03:32:17;;;;;;;7.00;6.72;;;6.50;99.90;;;;;;4165277;28;20259;-59
2023/03/08 03:34:38;;;;;;;8.57;7.85;;;6.40;99.90;;;;;;4169405;28;20113;-59
2023/03/08 03:36:58;;;;;;;7.28;6.88;;;6.40;99.90;;;;;;4163618;28;20335;-59
2023/03/08 03:39:18;;;;;;;7.43;7.10;;;6.40;99.90;;;;;;4168517;28;20049;-59
2023/03/08 03:41:38;;;;;;;6.57;6.47;;;6.40;99.90;;;;;;4170867;28;20087;-59
2023/03/08 03:43:58;;;;;;;7.80;7.43;;;6.40;99.90;;;;;;4165148;28;20053;-59
2023/03/08 03:46:20;;;;;;;7.75;7.47;;;6.40;99.90;;;;;;4166851;28;20080;-59
2023/03/08 03:48:40;;;;;;;7.53;6.85;;;6.40;99.90;;;;;;4172375;28;20080;-60
2023/03/08 03:51:05;;;;;;;7.70;7.40;;;6.40;99.90;;;;;;4171419;28;20060;-59
2023/03/08 03:53:27;;;;;;;7.03;6.47;;;6.40;99.90;;;;;;4170036;28;20059;-59
2023/03/08 03:55:47;;;;;;;6.85;6.47;;;6.50;99.90;;;;;;4172438;28;20092;-60
2023/03/08 03:58:07;;;;;;;7.10;6.88;;;6.40;99.90;;;;;;4182769;28;20105;-59
2023/03/08 04:00:26;;;;;;;7.35;7.15;;;6.40;99.90;;;;;;4178468;28;20271;-59
2023/03/08 04:02:46;;;;;;;5.20;5.10;;;6.40;99.90;;;;;;4172668;28;20045;-59
2023/03/08 04:05:07;;;;;;;7.10;6.75;;;6.40;99.90;;;;;;4177740;28;20284;-59
2023/03/08 04:07:27;;;;;;;7.30;6.95;;;6.50;99.90;;;;;;4185300;28;20052;-59
2023/03/08 04:09:47;;;;;;;8.07;7.57;;;6.40;99.90;;;;;;4178531;28;20036;-59
2023/03/08 04:12:07;;;;;;;7.75;7.55;;;6.40;99.90;;;;;;4179816;28;20087;-58
2023/03/08 04:14:27;;;;;;;7.97;7.75;;;6.40;99.90;;;;;;4184126;28;20079;-58
2023/03/08 04:16:47;;;;;;;6.97;6.75;;;6.30;99.90;;;;;;4181365;28;20059;-58
2023/03/08 04:19:10;;;;;;;7.07;6.72;;;6.30;99.90;;;;;;4176142;28;20086;-58
2023/03/08 04:21:30;;;;;;;8.20;7.90;;;6.30;99.90;;;;;;4177025;28;20235;-59
2023/03/08 04:23:51;;;;;;;7.40;6.68;;;6.30;99.90;;;;;;4180083;28;20060;-58
2023/03/08 04:26:12;;;;;;;7.20;6.68;;;6.30;99.90;;;;;;4176332;28;20087;-57
2023/03/08 04:28:32;;;;;;;9.40;9.10;;;6.20;99.90;;;;;;4175338;28;20044;-58
2023/03/08 04:30:52;;;;;;;8.20;7.90;;;6.20;99.90;;;;;;4175355;28;20153;-58
2023/03/08 04:33:12;;;;;;;9.35;9.15;;;6.20;99.90;;;;;;4175383;28;20044;-58
2023/03/08 04:35:32;;;;;;;8.65;8.43;;;6.20;99.90;;;;;;4171404;28;20049;-58
2023/03/08 04:37:52;;;;;;;8.50;7.93;;;6.20;99.90;;;;;;4171117;28;20087;-59
2023/03/08 04:40:12;;;;;;;8.52;7.88;;;6.20;99.90;;;;;;4176696;28;20121;-57
2023/03/08 04:42:32;;;;;;;6.75;6.65;;;6.20;99.90;;;;;;4179293;28;20044;-56
2023/03/08 04:44:52;;;;;;;5.90;5.80;;;6.30;99.90;;;;;;4175372;28;20083;-55
2023/03/08 04:47:13;;;;;;;7.25;6.57;;;6.20;99.90;;;;;;4171608;28;20068;-55
2023/03/08 04:49:32;;;;;;;6.68;6.25;;;6.30;99.90;;;;;;4175130;28;20417;-55
2023/03/08 04:51:52;;;;;;;6.90;6.60;;;6.30;99.90;;;;;;4181520;28;20286;-59
2023/03/08 04:54:11;;;;;;;7.47;7.20;;;6.20;99.90;;;;;;4174629;28;20076;-59
2023/03/08 04:56:31;;;;;;;6.88;6.57;;;6.20;99.90;;;;;;4178903;28;20083;-59
2023/03/08 04:58:52;;;;;;;6.70;6.50;;;6.20;99.90;;;;;;4179857;28;20224;-59
2023/03/08 05:01:15;;;;;;;7.07;6.68;;;6.30;99.90;;;;;;4182657;28;20374;-57
2023/03/08 05:03:34;;;;;;;6.80;6.63;;;6.30;99.90;;;;;;4177836;28;20072;-58
2023/03/08 05:05:55;;;;;;;6.68;6.38;;;6.30;99.90;;;;;;4177911;28;20235;-59
2023/03/08 05:08:16;;;;;;;7.00;6.80;;;6.30;99.90;;;;;;4175981;28;20109;-59
2023/03/08 05:10:35;;;;;;;6.22;6.03;;;6.30;99.90;;;;;;4173221;28;20052;-59
2023/03/08 05:12:55;;;;;;;7.43;7.07;;;6.30;99.90;;;;;;4171224;28;20053;-58
2023/03/08 05:15:15;;;;;;;6.82;6.50;;;6.30;99.90;;;;;;4179108;28;20271;-59
2023/03/08 05:17:35;;;;;;;9.88;9.02;;;6.20;99.90;;;;;;4176595;28;20113;-58
2023/03/08 05:19:55;;;;;;;8.20;7.85;;;6.20;99.90;;;;;;4180154;28;20036;-59
2023/03/08 05:22:15;;;;;;;8.98;8.48;;;6.20;99.90;;;;;;4175788;28;20056;-59
2023/03/08 05:24:38;;;;;;;8.02;7.63;;;6.20;99.90;;;;;;4178802;28;20076;-58
2023/03/08 05:26:58;;;;;;;7.38;6.97;;;6.20;99.90;;;;;;4179860;28;20056;-58
2023/03/08 05:29:18;;;;;;;8.60;8.18;;;6.20;99.90;;;;;;4181269;28;20087;-58
2023/03/08 05:31:38;;;;;;;8.60;8.20;;;6.10;99.90;;;;;;4174218;28;20059;-59
2023/03/08 05:33:58;;;;;;;8.00;7.65;;;6.10;99.90;;;;;;4175371;28;20055;-59
2023/03/08 05:36:19;;;;;;;9.00;8.43;;;6.10;99.90;;;;;;4174022;28;20095;-58
2023/03/08 05:38:39;;;;;;;8.02;7.45;;;6.20;99.90;;;;;;4175875;28;20104;-59
2023/03/08 05:41:03;;;;;;;7.72;7.32;;;6.20;99.90;;;;;;4174963;28;20049;-59
2023/03/08 05:43:23;;;;;;;7.57;7.38;;;6.30;99.90;;;;;;4176051;28;20052;-58
2023/03/08 05:45:52;;;;;;;7.13;6.88;;;6.30;99.90;;;;;;4176482;28;20320;-59
2023/03/08 05:48:12;;;;;;;7.13;6.93;;;6.30;99.90;;;;;;4177423;28;20056;-59
2023/03/08 05:50:32;;;;;;;8.00;7.65;;;6.30;99.90;;;;;;4176517;28;20250;-59
2023/03/08 05:52:52;;;;;;;7.72;7.45;;;6.30;99.90;;;;;;4174831;28;20052;-59
2023/03/08 05:55:12;;;;;;;8.60;7.75;;;6.40;99.90;;;;;;4178693;28;20243;-59
2023/03/08 05:57:32;;;;;;;8.30;7.93;;;6.40;99.90;;;;;;4172704;28;20052;-59
2023/03/08 05:59:52;;;;;;;8.30;7.90;;;6.40;99.90;;;;;;4171192;28;20373;-59
2023/03/08 06:02:12;;;;;;;38.13;24.52;;;6.40;99.90;;;;;;4171695;28;20121;-59
2023/03/08 06:04:32;;;;;;;16.33;14.65;;;6.40;99.90;;;;;;4176121;28;20095;-59
2023/03/08 06:06:52;;;;;;;19.73;16.70;;;6.50;99.90;;;;;;4181253;28;20044;-59
2023/03/08 06:09:12;;;;;;;44.92;30.65;;;6.50;99.90;;;;;;4172957;28;20053;-59
2023/03/08 06:11:31;;;;;;;23.45;20.98;;;6.50;99.90;;;;;;4174453;28;20409;-59
2023/03/08 06:13:52;;;;;;;10.90;10.30;;;6.50;99.90;;;;;;4175684;28;20044;-58
2023/03/08 06:16:12;;;;;;;7.30;7.03;;;6.50;99.90;;;;;;4180523;28;20088;-59
2023/03/08 06:18:32;;;;;;;9.10;8.60;;;6.50;99.90;;;;;;4176395;28;20096;-58
2023/03/08 06:21:01;;;;;;;10.80;9.98;;;6.50;99.90;;;;;;4176284;28;20052;-57
2023/03/08 06:23:21;;;;;;;7.18;6.78;;;6.50;99.90;;;;;;4178805;28;20107;-59
2023/03/08 06:25:42;;;;;;;8.63;8.23;;;6.50;99.90;;;;;;4181618;28;20064;-59
2023/03/08 06:28:02;;;;;;;8.88;8.52;;;6.50;99.90;;;;;;4176116;28;20224;-59
2023/03/08 06:30:22;;;;;;;10.48;9.88;;;6.60;99.90;;;;;;4178856;28;20052;-60
2023/03/08 06:32:42;;;;;;;12.98;10.18;;;6.60;99.90;;;;;;4175863;28;20109;-59
2023/03/08 06:35:03;;;;;;;11.88;11.07;;;6.60;99.90;;;;;;4170804;28;20114;-59
2023/03/08 06:37:23;;;;;;;9.07;8.70;;;6.60;99.90;;;;;;4169281;28;20065;-59
2023/03/08 06:39:43;;;;;;;11.07;10.30;;;6.60;99.90;;;;;;4184458;28;20048;-62
2023/03/08 06:42:03;;;;;;;8.80;8.60;;;6.60;99.90;;;;;;4178290;28;20124;-59
2023/03/08 06:44:24;;;;;;;8.65;8.35;;;6.60;99.90;;;;;;4169379;28;20045;-59
2023/03/08 06:46:44;;;;;;;8.52;8.02;;;6.60;99.90;;;;;;4166239;28;20283;-58
2023/03/08 06:49:06;;;;;;;8.85;8.60;;;6.60;99.90;;;;;;4166922;28;20049;-59
2023/03/08 06:51:26;;;;;;;9.10;8.90;;;6.60;99.90;;;;;;4178015;28;20064;-59
2023/03/08 06:53:48;;;;;;;11.35;10.45;;;6.70;99.90;;;;;;4183709;28;20048;-59
2023/03/08 06:56:12;;;;;;;8.75;8.15;;;6.70;99.90;;;;;;4170833;28;20088;-59
2023/03/08 06:58:34;;;;;;;9.10;8.77;;;6.70;99.90;;;;;;4174487;28;20088;-59
2023/03/08 07:00:54;;;;;;;8.82;8.60;;;6.70;99.90;;;;;;4179932;28;20056;-58
2023/03/08 07:03:15;;;;;;;8.27;7.90;;;6.70;99.90;;;;;;4176755;28;20045;-59
2023/03/08 07:05:34;;;;;;;8.40;8.07;;;6.80;99.90;;;;;;4171420;28;20044;-59
2023/03/08 07:07:54;;;;;;;7.72;7.45;;;6.80;99.90;;;;;;4179715;28;20373;-59
2023/03/08 07:10:16;;;;;;;7.82;7.55;;;6.80;99.90;;;;;;4178019;28;20169;-59
2023/03/08 07:12:39;;;;;;;9.70;9.30;;;6.80;99.90;;;;;;4170869;28;20048;-59
2023/03/08 07:14:59;;;;;;;62.05;47.60;;;6.90;99.90;;;;;;4175995;28;20044;-59
2023/03/08 07:17:19;;;;;;;18.27;16.38;;;7.00;99.90;;;;;;4181129;28;20087;-59
2023/03/08 07:19:39;;;;;;;10.40;9.93;;;7.10;99.90;;;;;;4177913;28;20079;-59
2023/03/08 07:21:59;;;;;;;9.90;9.32;;;7.10;99.90;;;;;;4170149;28;20045;-59
2023/03/08 07:24:19;;;;;;;10.07;9.57;;;7.10;99.90;;;;;;4177096;28;20235;-59
2023/03/08 07:26:39;;;;;;;8.50;7.82;;;7.10;99.90;;;;;;4179746;28;20060;-59
2023/03/08 07:28:59;;;;;;;14.93;13.75;;;7.10;99.90;;;;;;4176831;28;20067;-59
2023/03/08 07:31:19;;;;;;;14.68;13.52;;;7.10;99.90;;;;;;4170900;28;20110;-58
2023/03/08 07:33:39;;;;;;;10.27;9.68;;;7.10;99.90;;;;;;4172061;28;20109;-59
2023/03/08 07:36:02;;;;;;;10.57;9.73;;;7.20;99.90;;;;;;4173745;28;20117;-59
2023/03/08 07:38:22;;;;;;;9.50;9.07;;;7.30;99.90;;;;;;4166197;28;20036;-59
2023/03/08 07:40:43;;;;;;;11.35;10.68;;;7.30;99.90;;;;;;4170078;28;20152;-59
2023/03/08 07:43:03;;;;;;;10.60;10.05;;;7.40;99.90;;;;;;4174466;28;20235;-59
2023/03/08 07:45:24;;;;;;;11.63;10.70;;;7.50;99.90;;;;;;4165891;28;20065;-60
2023/03/08 07:47:43;;;;;;;12.57;11.68;;;7.60;99.90;;;;;;4168768;28;20092;-59
2023/03/08 07:50:04;;;;;;;10.27;9.77;;;7.50;99.90;;;;;;4168728;28;20083;-60
2023/03/08 07:52:27;;;;;;;10.68;10.10;;;7.60;99.90;;;;;;4173292;28;20049;-59
2023/03/08 07:54:47;;;;;;;12.27;11.45;;;7.70;99.90;;;;;;4168383;28;20061;-61
2023/03/08 07:57:13;;;;;;;13.18;12.27;;;7.90;99.90;;;;;;4167482;28;20073;-60
2023/03/08 07:59:32;;;;;;;11.20;10.52;;;8.00;99.90;;;;;;4172219;28;20082;-60
2023/03/08 08:01:52;;;;;;;11.18;10.68;;;8.10;99.90;;;;;;4171895;28;20048;-59
2023/03/08 08:04:12;;;;;;;10.40;9.90;;;8.10;99.90;;;;;;4170167;28;20044;-60
2023/03/08 08:06:34;;;;;;;11.35;10.65;;;8.30;99.90;;;;;;4168785;28;20045;-60
2023/03/08 08:08:55;;;;;;;15.10;13.75;;;8.40;99.90;;;;;;4176691;28;20113;-60
2023/03/08 08:11:18;;;;;;;28.10;20.65;;;8.40;99.90;;;;;;4174393;28;20382;-60
2023/03/08 08:13:38;;;;;;;16.98;15.63;;;8.50;99.90;;;;;;4172114;28;20085;-60
2023/03/08 08:16:02;;;;;;;21.90;19.30;;;8.60;99.90;;;;;;4174072;28;20041;-59
2023/03/08 08:18:21;;;;;;;12.32;11.40;;;8.80;99.90;;;;;;4177805;28;20045;-60
2023/03/08 08:20:41;;;;;;;10.73;9.88;;;9.00;99.90;;;;;;4176793;28;20080;-60
2023/03/08 08:23:05;;;;;;;13.70;9.68;;;9.30;99.90;;;;;;4176870;28;20076;-60
2023/03/08 08:25:25;;;;;;;13.18;9.63;;;9.50;99.90;;;;;;4175751;28;20049;-60
2023/03/08 08:27:45;;;;;;;11.80;7.90;;;10.00;99.90;;;;;;4183244;28;20051;-60
2023/03/08 08:30:05;;;;;;;10.23;8.77;;;10.10;99.90;;;;;;4175325;28;20082;-59
2023/03/08 08:32:26;;;;;;;9.57;6.78;;;10.40;99.90;;;;;;4176456;28;20071;-59
2023/03/08 08:34:46;;;;;;;6.43;5.97;;;10.40;99.90;;;;;;4176171;28;20239;-59
2023/03/08 08:37:06;;;;;;;6.50;5.07;;;10.30;99.90;;;;;;4169071;28;20107;-59
2023/03/08 08:39:26;;;;;;;7.40;5.60;;;10.50;99.90;;;;;;4173806;28;20370;-59
2023/03/08 08:41:48;;;;;;;6.57;5.95;;;10.70;99.90;;;;;;4177909;28;20112;-59
2023/03/08 08:44:08;;;;;;;13.55;7.18;;;10.50;99.90;;;;;;4175029;28;20076;-59
2023/03/08 08:46:30;;;;;;;8.25;6.85;;;10.50;99.90;;;;;;4177472;28;20383;-59
2023/03/08 08:48:50;;;;;;;8.00;6.18;;;10.70;99.90;;;;;;4176072;28;20087;-59
2023/03/08 08:51:12;;;;;;;6.68;5.40;;;10.70;99.90;;;;;;4178650;28;20404;-59
2023/03/08 08:53:32;;;;;;;5.57;5.28;;;10.40;99.90;;;;;;4175455;28;20056;-59
2023/03/08 08:55:52;;;;;;;8.45;7.47;;;10.60;99.90;;;;;;4181146;28;20458;-59
2023/03/08 08:58:12;;;;;;;7.90;7.15;;;10.50;99.90;;;;;;4174375;28;20398;-59
2023/03/08 09:00:33;;;;;;;7.53;6.88;;;10.60;99.90;;;;;;4176570;28;20112;-59
2023/03/08 09:02:52;;;;;;;7.80;6.65;;;11.00;99.90;;;;;;4180457;28;20056;-59
2023/03/08 09:05:13;;;;;;;10.80;6.18;;;11.00;99.90;;;;;;4184058;28;20135;-59
2023/03/08 09:07:33;;;;;;;8.70;6.93;;;10.90;99.90;;;;;;4175650;28;20063;-59
2023/03/08 09:09:53;;;;;;;6.97;6.43;;;11.00;99.90;;;;;;4179892;28;20270;-59
2023/03/08 09:12:14;;;;;;;6.38;4.88;;;11.00;99.90;;;;;;4175568;28;20052;-59
2023/03/08 09:14:34;;;;;;;5.00;4.32;;;11.10;99.90;;;;;;4173165;28;20048;-59
2023/03/08 09:16:54;;;;;;;12.15;4.50;;;11.20;99.90;;;;;;4175039;28;20055;-59
2023/03/08 09:19:14;;;;;;;6.03;5.10;;;11.30;99.90;;;;;;4182500;28;20048;-58
2023/03/08 09:21:35;;;;;;;5.75;4.68;;;11.30;99.90;;;;;;4178067;28;20369;-59
2023/03/08 09:23:58;;;;;;;5.68;3.38;;;11.40;99.90;;;;;;4174471;28;20049;-59
2023/03/08 09:26:19;;;;;;;5.88;5.40;;;11.40;99.90;;;;;;4178970;28;20048;-59
2023/03/08 09:28:39;;;;;;;6.57;5.97;;;11.30;99.90;;;;;;4183985;28;20087;-59
2023/03/08 09:31:01;;;;;;;7.15;5.60;;;11.40;99.90;;;;;;4173780;28;20044;-59
2023/03/08 09:33:21;;;;;;;5.22;4.72;;;11.70;99.90;;;;;;4174811;28;20055;-59
2023/03/08 09:35:41;;;;;;;9.82;5.35;;;11.70;99.90;;;;;;4174477;28;20060;-59
2023/03/08 09:38:01;;;;;;;9.38;6.03;;;11.50;99.90;;;;;;4169422;28;20045;-59
2023/03/08 09:40:26;;;;;;;6.28;5.68;;;12.00;99.90;;;;;;4179888;28;20048;-59
2023/03/08 09:42:46;;;;;;;5.85;5.25;;;12.00;99.90;;;;;;4176749;28;20397;-59
2023/03/08 09:45:16;;;;;;;10.77;5.35;;;11.90;99.90;;;;;;4177305;28;20114;-59
2023/03/08 09:47:41;;;;;;;5.63;5.32;;;12.00;99.90;;;;;;4176185;28;20048;-59
2023/03/08 09:50:46;;;;;;;7.30;6.63;;;12.00;99.90;;;;;;4178297;28;20041;-58
2023/03/08 09:53:15;;;;;;;9.30;5.50;;;11.70;99.90;;;;;;4178885;28;20079;-59
2023/03/08 09:55:40;;;;;;;7.50;6.13;;;11.70;99.90;;;;;;4176219;28;20064;-59
2023/03/08 09:58:13;;;;;;;6.18;5.35;;;11.80;99.90;;;;;;4177480;28;20382;-58
2023/03/08 10:00:36;;;;;;;5.90;5.43;;;11.70;99.90;;;;;;4171937;28;20128;-58
2023/03/08 10:03:12;;;;;;;6.32;4.38;;;11.80;99.90;;;;;;4172923;28;20095;-59
2023/03/08 10:05:49;;;;;;;9.23;4.22;;;12.10;99.90;;;;;;4174795;28;20045;-59
2023/03/08 10:08:22;;;;;;;11.57;4.55;;;12.40;99.90;;;;;;4171112;28;20092;-59
2023/03/08 10:10:48;;;;;;;5.03;4.00;;;12.50;99.90;;;;;;4177737;28;20121;-59
2023/03/08 10:13:28;;;;;;;6.65;3.40;;;12.60;99.90;;;;;;4172507;28;20363;-59
2023/03/08 10:15:51;;;;;;;4.28;4.13;;;12.40;99.90;;;;;;4176287;28;20045;-59
2023/03/08 10:18:29;;;;;;;8.32;4.53;;;12.50;99.90;;;;;;4179176;28;20051;-59
2023/03/08 10:20:50;;;;;;;9.30;4.53;;;12.20;99.90;;;;;;4176379;28;20056;-59
2023/03/08 10:23:13;;;;;;;8.27;6.03;;;12.40;99.90;;;;;;4177361;28;20135;-59
2023/03/08 10:25:33;;;;;;;4.43;4.00;;;12.70;99.90;;;;;;4178789;28;20047;-59
2023/03/08 10:27:55;;;;;;;4.47;3.65;;;12.70;99.90;;;;;;4184200;28;20051;-59
2023/03/08 10:30:18;;;;;;;4.10;3.60;;;12.60;99.90;;;;;;4171010;28;20036;-59
2023/03/08 10:32:43;;;;;;;3.67;3.40;;;12.60;99.90;;;;;;4175994;28;20107;-59
2023/03/08 10:35:04;;;;;;;4.15;3.85;;;12.70;99.90;;;;;;4176174;28;20236;-59
2023/03/08 10:37:30;;;;;;;3.20;2.67;;;12.90;99.90;;;;;;4175416;28;20057;-59
2023/03/08 10:39:53;;;;;;;6.95;3.58;;;13.00;99.90;;;;;;4170661;28;20040;-59
2023/03/08 10:42:15;;;;;;;5.63;3.72;;;12.80;99.90;;;;;;4176794;28;20051;-59
2023/03/08 10:44:43;;;;;;;5.65;3.00;;;13.00;99.90;;;;;;4179887;28;20043;-59
2023/03/08 10:47:17;;;;;;;6.43;3.08;;;13.00;99.90;;;;;;4172938;28;20255;-60
2023/03/08 10:49:36;;;;;;;3.38;3.22;;;13.20;99.90;;;;;;4168520;28;20064;-58
2023/03/08 10:51:59;;;;;;;2.85;2.70;;;13.20;99.90;;;;;;4171121;28;20362;-59
2023/03/08 10:54:20;;;;;;;3.65;3.38;;;13.20;99.90;;;;;;4173254;28;20056;-59
2023/03/08 10:56:50;;;;;;;4.53;3.67;;;13.20;99.90;;;;;;4171476;28;20052;-59
2023/03/08 10:59:30;;;;;;;5.72;3.95;;;13.20;99.90;;;;;;4168723;28;20045;-59
2023/03/08 11:01:55;;;;;;;4.43;4.15;;;13.10;99.90;;;;;;4171643;28;20278;-59
2023/03/08 11:04:18;;;;;;;3.25;3.08;;;13.20;99.90;;;;;;4173701;28;20080;-59
2023/03/08 11:06:38;;;;;;;4.25;3.20;;;13.30;99.90;;;;;;4174184;28;20096;-58
2023/03/08 11:09:01;;;;;;;4.50;3.38;;;13.40;99.90;;;;;;4174939;28;20100;-59
2023/03/08 11:11:21;;;;;;;5.03;3.40;;;13.20;99.90;;;;;;4176903;28;20232;-59
2023/03/08 11:13:45;;;;;;;8.48;2.75;;;13.20;99.90;;;;;;4178904;28;20076;-59
2023/03/08 11:16:16;;;;;;;2.97;2.47;;;13.20;99.90;;;;;;4175106;28;20053;-59
2023/03/08 11:18:55;;;;;;;8.02;4.28;;;13.30;99.90;;;;;;4176819;28;20121;-59
2023/03/08 11:21:38;;;;;;;3.95;2.90;;;13.70;99.90;;;;;;4182628;28;20071;-59
2023/03/08 11:24:17;;;;;;;4.25;3.95;;;13.80;99.90;;;;;;4174809;28;20270;-59
2023/03/08 11:27:10;;;;;;;3.50;3.20;;;14.00;99.90;;;;;;4175220;28;20069;-59
2023/03/08 11:29:48;;;;;;;2.17;2.00;;;14.20;99.90;;;;;;4173401;28;20061;-58
2023/03/08 11:32:36;;;;;;;2.17;1.83;;;14.20;99.90;;;;;;4175208;28;20071;-59
2023/03/08 11:35:23;;;;;;;1.55;1.55;;;14.30;99.90;;;;;;4173189;28;20048;-59
2023/03/08 11:37:52;;;;;;;1.70;1.65;;;14.00;99.90;;;;;;4175506;28;20052;-58
2023/03/08 11:40:42;;;;;;;2.33;2.15;;;14.00;99.90;;;;;;4168906;28;20118;-59
2023/03/08 11:43:23;;;;;;;3.95;3.10;;;14.00;99.90;;;;;;4170546;28;20383;-59
2023/03/08 11:46:26;;;;;;;2.40;2.30;;;14.10;99.90;;;;;;4172982;28;20071;-59
2023/03/08 11:48:54;;;;;;;2.67;2.47;;;14.00;99.90;;;;;;4170595;28;20096;-59
2023/03/08 11:51:28;;;;;;;2.50;1.95;;;14.10;99.90;;;;;;4173711;28;20083;-58
2023/03/08 11:53:56;;;;;;;5.28;3.10;;;14.20;99.90;;;;;;4177341;28;20084;-59
2023/03/08 11:56:41;;;;;;;2.47;2.28;;;14.20;99.90;;;;;;4170450;28;20056;-58
2023/03/08 11:59:07;;;;;;;2.70;2.60;;;14.10;99.90;;;;;;4171391;28;20079;-59
2023/03/08 12:01:39;;;;;;;2.20;1.75;;;14.20;99.90;;;;;;4172389;28;20051;-59
2023/03/08 12:04:08;;;;;;;2.67;2.58;;;14.20;99.90;;;;;;4171633;28;20378;-59
2023/03/08 12:06:35;;;;;;;1.60;1.60;;;14.20;99.90;;;;;;4184383;28;20083;-60
2023/03/08 12:09:03;;;;;;;1.70;1.60;;;14.20;99.90;;;;;;4172887;28;20044;-58
2023/03/08 12:11:28;;;;;;;2.05;1.95;;;14.20;99.90;;;;;;4174853;28;20377;-59
2023/03/08 12:14:12;;;;;;;2.65;1.92;;;14.60;99.90;;;;;;4177985;28;20039;-59
2023/03/08 12:16:41;;;;;;;3.65;2.40;;;15.10;99.90;;;;;;4176204;28;20096;-59
2023/03/08 12:19:29;;;;;;;3.85;3.65;;;15.00;99.90;;;;;;4175634;28;20117;-59
2023/03/08 12:21:54;;;;;;;1.40;1.40;;;14.90;99.90;;;;;;4176082;28;20043;-60
2023/03/08 12:24:15;;;;;;;1.75;1.75;;;14.70;99.60;;;;;;4175601;28;20120;-59
2023/03/08 12:26:42;;;;;;;1.98;1.90;;;14.80;99.90;;;;;;4171950;28;20052;-59